MET'MAP v2.0
soon released !

Expected late october,
this new version will be
more efficient, smarter,
and hosted on a brand new
server x3 powerfull...
...and still free !


Not compatible ?
Try the mobile version !

LOG IN : | Subscribe | Disclaimer | Who is Orbifly ? |
ICAO code :

TAF - EHVK Volkel Airbase - 13 Nov 2019 18:59 UTC
Data Sources :     NOAA   


- Airport Elevation : 72 ft
- IATA code : UDE
- No reported NOTAMs.


EHVK - Volkel Airbase

Latest METAR recorded : 2015/08/11 08:11 EHVK 110811Z AUTO 27005KT 7000 HZ FEW013 22/17 Q1018 WHT 28005KT 7000 SCT014 BKN240 BECMG SCT016 BKN220
TAF TAF EHVK
Valid from the 13 at 14:00 until the 14 at 02:00 UTC


131400Z 1314/1402 22010KT 9999 SCT015 BKN020
TEMPO 1314/1319 4500 SHRA SCT007 SCT018CB BKN022
PROB30
TEMPO 1314/1316 23010G20KT 2500 TSRAGS SCT006 SCT015CB BKN020
BECMG 1317/1320 18008KT FEW015 SCT020
PROB30
TEMPO 1321/1402 SCT020CB

Source NOAA


MET'MAP, your aeronautical weather chart ! - Copyright ORBIFLY December 2007

Programming & Development : Alexandra Zaïnal
Co-Developer : Marc-Olivier Méhu
Technical & hardware support : Manuel Goepfert
Concept & Financing : Baudouin d'Aumeries